createdAt,value
2018-11-22T00:02:16.359Z,42.60
2018-11-22T00:04:44.708Z,43.92
2018-11-22T00:07:13.047Z,39.42
2018-11-22T00:09:41.372Z,44.90
2018-11-22T00:12:09.751Z,42.50
2018-11-22T00:14:38.095Z,43.40
2018-11-22T00:17:06.685Z,39.10
2018-11-22T00:19:35.035Z,41.42
2018-11-22T00:22:03.612Z,40.30
2018-11-22T00:24:32.043Z,38.58
2018-11-22T00:27:00.483Z,39.95
2018-11-22T00:29:29.088Z,40.63
2018-11-22T00:31:57.434Z,43.58
2018-11-22T00:34:25.779Z,40.43
2018-11-22T00:36:54.132Z,44.73
2018-11-22T00:39:22.478Z,42.67
2018-11-22T00:41:50.820Z,45.65
2018-11-22T00:44:19.179Z,42.13
2018-11-22T00:46:47.524Z,44.48
2018-11-22T00:49:15.867Z,41.00
2018-11-22T00:51:44.211Z,45.38
2018-11-22T00:54:12.559Z,42.55
2018-11-22T00:56:40.916Z,44.95
2018-11-22T00:59:09.267Z,43.13
2018-11-22T01:01:38.131Z,45.25
2018-11-22T01:04:06.579Z,43.52
2018-11-22T01:06:34.944Z,43.00
2018-11-22T01:09:05.263Z,39.75
2018-11-22T01:11:33.599Z,44.80
2018-11-22T01:14:02.063Z,44.90
2018-11-22T01:16:30.417Z,42.48
2018-11-22T01:18:58.756Z,43.98
2018-11-22T01:21:27.127Z,40.78
2018-11-22T01:23:55.896Z,40.78
2018-11-22T01:26:24.235Z,45.15
2018-11-22T01:28:52.591Z,45.97
2018-11-22T01:31:20.936Z,40.43
2018-11-22T01:33:49.275Z,43.42
2018-11-22T01:36:17.659Z,47.48
2018-11-22T01:38:46.012Z,42.30
2018-11-22T01:41:14.348Z,45.10
2018-11-22T01:43:42.783Z,46.90
2018-11-22T01:46:11.139Z,47.23
2018-11-22T01:48:39.487Z,48.90
2018-11-22T01:51:07.840Z,43.87
2018-11-22T01:53:36.177Z,41.63
2018-11-22T01:56:04.939Z,43.25
2018-11-22T01:58:33.281Z,42.27
2018-11-22T02:01:01.721Z,46.37
2018-11-22T02:03:30.066Z,47.62
2018-11-22T02:05:58.410Z,44.90
2018-11-22T02:08:26.839Z,43.35
2018-11-22T02:10:55.155Z,44.90
2018-11-22T02:13:23.527Z,41.83
2018-11-22T02:15:51.866Z,44.10
2018-11-22T02:18:20.215Z,42.83
2018-11-22T02:20:48.564Z,43.87
2018-11-22T02:23:17.208Z,42.90
2018-11-22T02:25:45.680Z,42.73
2018-11-22T02:28:14.012Z,41.18
2018-11-22T02:30:42.347Z,38.98
2018-11-22T02:33:10.687Z,41.60
2018-11-22T02:35:39.034Z,43.38
2018-11-22T02:38:07.487Z,42.85
2018-11-22T02:40:35.824Z,44.45
2018-11-22T02:43:06.531Z,42.25
2018-11-22T02:45:35.028Z,40.65
2018-11-22T02:48:03.365Z,42.40
2018-11-22T02:50:31.728Z,40.90
2018-11-22T02:53:00.089Z,41.50
2018-11-22T03:00:36.487Z,39.07
2018-11-22T03:03:05.131Z,43.83
2018-11-22T03:05:33.490Z,41.30
2018-11-22T03:08:01.848Z,42.80
2018-11-22T03:10:30.179Z,41.60
2018-11-22T03:12:58.677Z,36.05
2018-11-22T03:15:27.239Z,36.05
2018-11-22T03:17:55.859Z,40.52
2018-11-22T03:20:24.276Z,40.12
2018-11-22T03:22:52.666Z,40.60
2018-11-22T03:25:21.307Z,39.37
2018-11-22T03:27:50.614Z,38.88
2018-11-22T03:30:20.512Z,39.33
2018-11-22T03:32:49.207Z,40.43
2018-11-22T03:35:19.369Z,38.55
2018-11-22T03:37:47.748Z,41.88
2018-11-22T03:40:17.711Z,38.70
2018-11-22T03:42:46.053Z,38.63
2018-11-22T03:45:15.359Z,37.75
2018-11-22T03:47:44.183Z,40.83
2018-11-22T03:50:14.353Z,41.37
2018-11-22T03:52:43.603Z,40.30
2018-11-22T03:55:16.176Z,37.83
2018-11-22T03:57:45.068Z,40.60
2018-11-22T04:00:16.235Z,41.23
2018-11-22T04:02:45.353Z,42.25
2018-11-22T04:05:18.083Z,41.18
2018-11-22T04:07:46.632Z,43.92
2018-11-22T04:10:19.569Z,40.05
2018-11-22T04:12:47.898Z,44.77
2018-11-22T04:15:16.518Z,42.37
2018-11-22T04:17:44.877Z,41.02
2018-11-22T04:20:17.787Z,40.65
2018-11-22T04:22:46.136Z,42.48
2018-11-22T04:25:15.217Z,39.13
2018-11-22T04:27:43.883Z,38.55
2018-11-22T04:30:19.443Z,44.58
2018-11-22T04:32:48.210Z,42.50
2018-11-22T04:35:17.684Z,43.73
2018-11-22T04:37:46.045Z,42.93
2018-11-22T04:40:18.737Z,41.83
2018-11-22T04:42:47.623Z,46.77
2018-11-22T04:45:16.320Z,43.08
2018-11-22T04:47:45.210Z,42.62
2018-11-22T04:50:15.118Z,44.63
2018-11-22T04:52:43.513Z,44.33
2018-11-22T04:55:12.000Z,44.93
2018-11-22T04:57:40.359Z,48.00
2018-11-22T05:00:14.103Z,45.83
2018-11-22T05:02:42.860Z,45.50
2018-11-22T05:05:16.053Z,45.85
2018-11-22T05:07:44.936Z,47.45
2018-11-22T05:10:15.471Z,47.13
2018-11-22T05:12:44.360Z,47.58
2018-11-22T05:15:17.283Z,44.38
2018-11-22T05:17:46.044Z,50.20
2018-11-22T05:20:15.737Z,44.55
2018-11-22T05:22:44.092Z,46.45
2018-11-22T05:25:12.911Z,46.60
2018-11-22T05:27:41.265Z,49.00
2018-11-22T05:30:17.531Z,52.75
2018-11-22T05:32:46.027Z,48.35
2018-11-22T05:35:15.027Z,44.58
2018-11-22T05:37:43.379Z,51.20
2018-11-22T05:40:16.493Z,46.55
2018-11-22T05:42:45.055Z,53.30
2018-11-22T05:45:15.444Z,49.77
2018-11-22T05:47:43.875Z,49.15
2018-11-22T05:50:14.515Z,52.73
2018-11-22T05:52:43.814Z,51.60
2018-11-22T05:55:12.711Z,51.33
2018-11-22T05:57:41.111Z,54.20
2018-11-22T06:00:20.941Z,54.93
2018-11-22T06:02:49.606Z,51.95
2018-11-22T06:05:19.330Z,53.10
2018-11-22T06:07:47.831Z,53.40
2018-11-22T06:10:18.352Z,51.70
2018-11-22T06:12:47.228Z,52.90
2018-11-22T06:15:15.914Z,50.35
2018-11-22T06:17:45.219Z,55.25
2018-11-22T06:20:20.871Z,53.15
2018-11-22T06:22:49.754Z,54.25
2018-11-22T06:25:18.640Z,57.45
2018-11-22T06:27:47.549Z,55.60
2018-11-22T06:30:22.628Z,50.58
2018-11-22T06:32:52.327Z,48.28
2018-11-22T06:35:21.171Z,54.08
2018-11-22T06:37:49.514Z,51.92
2018-11-22T06:40:18.344Z,54.73
2018-11-22T06:42:48.055Z,54.55
2018-11-22T06:45:20.839Z,57.80
2018-11-22T06:47:49.216Z,52.73
2018-11-22T06:50:18.670Z,56.92
2018-11-22T06:52:47.115Z,56.95
2018-11-22T06:55:17.019Z,58.00
2018-11-22T06:57:45.483Z,58.20
2018-11-22T07:00:16.227Z,53.15
2018-11-22T07:02:45.123Z,57.78
2018-11-22T07:05:14.207Z,61.85
2018-11-22T07:07:42.570Z,59.08
2018-11-22T07:10:12.859Z,53.85
2018-11-22T07:12:41.321Z,60.15
2018-11-22T07:15:10.594Z,57.40
2018-11-22T07:17:38.947Z,54.42
2018-11-22T07:20:09.645Z,55.58
2018-11-22T07:22:38.097Z,59.67
2018-11-22T07:25:10.231Z,57.95
2018-11-22T07:27:38.604Z,59.13
2018-11-22T07:30:13.422Z,60.48
2018-11-22T07:32:42.051Z,60.23
2018-11-22T07:35:11.951Z,57.48
2018-11-22T07:37:41.058Z,54.70
2018-11-22T07:40:14.923Z,58.73
2018-11-22T07:42:43.363Z,51.20
2018-11-22T07:45:23.296Z,52.83
2018-11-22T07:47:52.395Z,57.23
2018-11-22T07:50:21.692Z,56.63
2018-11-22T07:52:52.352Z,54.70
2018-11-22T07:55:19.063Z,55.87
2018-11-22T07:57:47.446Z,53.00
2018-11-22T08:00:18.684Z,56.53
2018-11-22T08:02:47.991Z,58.45
2018-11-22T08:05:17.702Z,54.48
2018-11-22T08:07:46.730Z,57.67
2018-11-22T08:10:16.156Z,57.13
2018-11-22T08:12:45.465Z,56.70
2018-11-22T08:15:15.344Z,59.93
2018-11-22T08:17:43.997Z,58.33
2018-11-22T08:20:13.095Z,57.93
2018-11-22T08:22:41.776Z,58.77
2018-11-22T08:25:15.176Z,54.53
2018-11-22T08:27:44.072Z,54.23
2018-11-22T08:30:15.454Z,52.17
2018-11-22T08:32:43.839Z,54.67
2018-11-22T08:35:12.792Z,57.07
2018-11-22T08:37:41.287Z,55.60
2018-11-22T08:40:15.078Z,58.23
2018-11-22T08:42:43.978Z,54.23
2018-11-22T08:45:13.675Z,53.67
2018-11-22T08:47:42.096Z,56.13
2018-11-22T08:50:12.727Z,55.75
2018-11-22T08:52:41.994Z,56.47
2018-11-22T08:55:11.791Z,54.05
2018-11-22T08:57:40.127Z,58.53
2018-11-22T09:00:17.327Z,54.67
2018-11-22T09:02:46.166Z,60.27
2018-11-22T09:05:16.063Z,55.30
2018-11-22T09:07:44.808Z,52.50
2018-11-22T09:10:15.284Z,54.67
2018-11-22T09:12:44.134Z,57.93
2018-11-22T09:15:14.088Z,53.57
2018-11-22T09:17:43.190Z,54.17
2018-11-22T09:20:20.070Z,52.13
2018-11-22T09:22:48.513Z,55.13
2018-11-22T09:25:17.434Z,55.77
2018-11-22T09:27:45.895Z,56.73
2018-11-22T09:30:22.790Z,50.93
2018-11-22T09:32:51.902Z,53.47
2018-11-22T09:35:21.298Z,55.23
2018-11-22T09:37:49.681Z,51.47
2018-11-22T09:40:25.734Z,52.00
2018-11-22T09:42:54.078Z,51.50
2018-11-22T09:45:34.793Z,50.63
2018-11-22T09:48:03.934Z,51.20
2018-11-22T09:50:32.282Z,51.83
2018-11-22T09:53:04.730Z,48.53
2018-11-22T09:55:33.308Z,49.27
2018-11-22T09:58:01.885Z,51.30
2018-11-22T10:00:30.626Z,47.57
2018-11-22T10:02:58.997Z,50.77
2018-11-22T10:05:29.026Z,51.30
2018-11-22T10:07:57.878Z,50.50
2018-11-22T10:10:27.986Z,47.37
2018-11-22T10:12:56.316Z,46.90
2018-11-22T10:15:29.182Z,49.60
2018-11-22T10:17:57.540Z,49.53
2018-11-22T10:20:26.849Z,50.20
2018-11-22T10:22:56.131Z,47.00
2018-11-22T10:25:25.010Z,47.90
2018-11-22T10:27:54.777Z,49.83
2018-11-22T10:30:24.286Z,46.47
2018-11-22T10:32:57.233Z,43.03
2018-11-22T10:35:27.224Z,43.40
2018-11-22T10:37:56.167Z,46.07
2018-11-22T10:40:25.393Z,44.97
2018-11-22T10:42:54.966Z,44.07
2018-11-22T10:45:27.694Z,45.13
2018-11-22T10:47:57.322Z,45.47
2018-11-22T10:50:27.239Z,41.20
2018-11-22T10:52:55.597Z,37.37
2018-11-22T10:55:25.214Z,38.80
2018-11-22T10:57:54.374Z,34.00
2018-11-22T11:00:51.998Z,31.40
2018-11-22T11:03:42.142Z,33.60
2018-11-22T11:06:28.527Z,31.90
2018-11-22T11:08:56.873Z,30.07
2018-11-22T11:11:25.204Z,28.53
2018-11-22T11:13:54.030Z,31.47
2018-11-22T11:16:22.482Z,34.63
2018-11-22T11:18:50.830Z,33.53
2018-11-22T11:21:19.259Z,33.27
2018-11-22T11:23:47.593Z,30.53
2018-11-22T11:26:15.936Z,30.27
2018-11-22T11:28:44.310Z,28.73
2018-11-22T11:31:12.652Z,29.30
2018-11-22T11:33:41.008Z,30.40
2018-11-22T11:36:09.343Z,30.80
2018-11-22T11:38:37.831Z,33.93
2018-11-22T11:41:06.251Z,32.33
2018-11-22T11:43:34.595Z,31.23
2018-11-22T11:46:03.000Z,31.17
2018-11-22T11:48:31.338Z,32.20
2018-11-22T11:50:59.692Z,32.73
2018-11-22T11:53:41.040Z,34.03
2018-11-22T11:55:57.389Z,32.00
2018-11-22T11:58:26.083Z,31.63
2018-11-22T12:00:54.430Z,30.40
2018-11-22T12:03:22.880Z,31.60
2018-11-22T12:05:51.235Z,31.90
2018-11-22T12:08:19.578Z,31.87
2018-11-22T12:10:47.917Z,32.27
2018-11-22T12:13:16.254Z,31.23
2018-11-22T12:18:12.501Z,31.10
2018-11-22T12:20:40.838Z,33.37
2018-11-22T12:23:09.168Z,32.30
2018-11-22T12:25:37.506Z,32.53
2018-11-22T12:28:05.848Z,31.03
2018-11-22T12:30:34.687Z,32.23
2018-11-22T12:33:34.450Z,32.57
2018-11-22T12:36:20.463Z,35.83
2018-11-22T12:38:48.812Z,34.03
2018-11-22T12:41:17.202Z,32.57
2018-11-22T12:43:45.547Z,33.57
2018-11-22T12:46:13.891Z,36.63
2018-11-22T12:48:42.807Z,34.73
2018-11-22T12:51:11.140Z,35.10
2018-11-22T12:53:39.475Z,32.50
2018-11-22T12:56:08.261Z,34.73
2018-11-22T12:58:36.603Z,33.10
2018-11-22T13:01:05.400Z,33.40
2018-11-22T13:03:33.756Z,36.50
2018-11-22T13:06:02.222Z,34.20
2018-11-22T13:08:30.571Z,37.73
2018-11-22T13:10:58.925Z,32.90
2018-11-22T13:13:27.359Z,35.00
2018-11-22T13:15:55.791Z,34.47
2018-11-22T13:18:24.138Z,35.63
2018-11-22T13:20:52.521Z,38.17
2018-11-22T13:23:20.858Z,35.93
2018-11-22T13:25:49.206Z,36.00
2018-11-22T13:28:17.558Z,39.17
2018-11-22T13:30:45.954Z,37.93
2018-11-22T13:33:14.311Z,34.67
2018-11-22T13:35:42.646Z,37.83
2018-11-22T13:38:11.018Z,38.40
2018-11-22T13:40:39.343Z,37.53
2018-11-22T13:43:07.705Z,38.17
2018-11-22T13:45:36.060Z,39.63
2018-11-22T13:48:04.635Z,38.37
2018-11-22T13:50:33.806Z,39.73
2018-11-22T13:53:06.385Z,38.53
2018-11-22T13:55:34.965Z,38.97
2018-11-22T13:58:03.421Z,39.87
2018-11-22T14:00:33.055Z,39.00
2018-11-22T14:03:05.733Z,38.43
2018-11-22T14:05:34.158Z,37.23
2018-11-22T14:08:02.498Z,40.10
2018-11-22T14:10:30.868Z,42.30
2018-11-22T14:12:59.255Z,40.03
2018-11-22T14:15:29.071Z,41.63
2018-11-22T14:17:58.982Z,38.83
2018-11-22T14:20:28.926Z,38.77
2018-11-22T14:22:57.278Z,38.93
2018-11-22T14:25:25.607Z,39.83
2018-11-22T14:27:53.963Z,39.77
2018-11-22T14:30:26.441Z,37.30
2018-11-22T14:32:54.330Z,41.90
2018-11-22T14:35:23.678Z,38.57
2018-11-22T14:37:52.264Z,39.30
2018-11-22T14:40:24.931Z,40.43
2018-11-22T14:42:54.030Z,38.53
2018-11-22T14:45:23.331Z,40.87
2018-11-22T14:47:53.043Z,43.20
2018-11-22T14:50:44.910Z,39.23
2018-11-22T14:53:17.895Z,40.30
2018-11-22T14:55:46.344Z,42.17
2018-11-22T14:58:14.727Z,40.03
2018-11-22T15:00:43.203Z,43.07
2018-11-22T15:03:11.534Z,42.77
2018-11-22T15:05:39.877Z,38.43
2018-11-22T15:08:08.301Z,38.13
2018-11-22T15:10:36.655Z,40.03
2018-11-22T15:13:05.380Z,40.57
2018-11-22T15:15:33.722Z,44.17
2018-11-22T15:18:02.116Z,44.10
2018-11-22T15:20:30.489Z,42.10
2018-11-22T15:22:58.821Z,41.77
2018-11-22T15:25:28.321Z,42.93
2018-11-22T15:27:56.790Z,43.07
2018-11-22T15:30:26.506Z,40.83
2018-11-22T15:32:55.306Z,45.17
2018-11-22T15:35:24.915Z,43.67
2018-11-22T15:37:53.804Z,45.00
2018-11-22T15:40:23.318Z,45.83
2018-11-22T15:42:53.218Z,44.73
2018-11-22T15:45:22.930Z,43.33
2018-11-22T15:47:51.382Z,41.07
2018-11-22T15:50:21.123Z,43.60
2018-11-22T15:52:49.564Z,41.60
2018-11-22T15:55:21.043Z,42.03
2018-11-22T15:57:48.749Z,43.40
2018-11-22T16:00:26.107Z,44.73
2018-11-22T16:02:55.000Z,44.73
2018-11-22T16:05:24.327Z,46.90
2018-11-22T16:07:52.683Z,44.87
2018-11-22T16:10:26.826Z,43.33
2018-11-22T16:12:56.130Z,43.00
2018-11-22T16:15:29.551Z,46.55
2018-11-22T16:17:57.898Z,45.55
2018-11-22T16:20:26.279Z,44.97
2018-11-22T16:22:54.635Z,45.08
2018-11-22T16:25:23.075Z,45.63
2018-11-22T16:27:51.423Z,45.70
2018-11-22T16:30:24.275Z,42.15
2018-11-22T16:32:52.848Z,48.13
2018-11-22T16:35:22.049Z,44.98
2018-11-22T16:37:50.419Z,47.45
2018-11-22T16:40:26.174Z,42.20
2018-11-22T16:42:55.687Z,44.55
2018-11-22T16:45:49.264Z,40.08
2018-11-22T16:48:17.622Z,45.30
2018-11-22T16:50:45.984Z,47.88
2018-11-22T16:53:14.446Z,44.67
2018-11-22T16:55:42.794Z,42.75
2018-11-22T16:58:11.150Z,44.08
2018-11-22T17:00:40.251Z,43.98
2018-11-22T17:03:13.221Z,44.98
2018-11-22T17:05:42.325Z,45.20
2018-11-22T17:08:10.737Z,43.08
2018-11-22T17:10:39.899Z,45.85
2018-11-22T17:13:08.366Z,45.13
2018-11-22T17:15:38.302Z,46.43
2018-11-22T17:18:08.194Z,43.55
2018-11-22T17:20:36.727Z,47.60
2018-11-22T17:23:06.226Z,44.40
2018-11-22T17:25:35.486Z,45.20
2018-11-22T17:28:05.207Z,42.40
2018-11-22T17:30:38.218Z,43.48
2018-11-22T17:33:06.692Z,45.67
2018-11-22T17:35:35.583Z,43.40
2018-11-22T17:38:05.482Z,42.30
2018-11-22T17:40:35.448Z,44.75
2018-11-22T17:43:03.986Z,46.23
2018-11-22T17:45:37.072Z,43.83
2018-11-22T17:48:06.008Z,42.80
2018-11-22T17:50:36.155Z,44.15
2018-11-22T17:53:05.030Z,45.78
2018-11-22T17:55:34.067Z,47.95
2018-11-22T17:58:02.663Z,42.33
2018-11-22T18:00:38.195Z,44.85
2018-11-22T18:03:07.290Z,44.53
2018-11-22T18:05:35.980Z,47.08
2018-11-22T18:08:05.194Z,43.90
2018-11-22T18:10:35.193Z,41.53
2018-11-22T18:13:03.562Z,38.48
2018-11-22T18:15:51.070Z,44.13
2018-11-22T18:18:19.506Z,42.20
2018-11-22T18:20:47.858Z,43.87
2018-11-22T18:23:16.194Z,42.78
2018-11-22T18:25:48.874Z,42.27
2018-11-22T18:28:13.799Z,44.27
2018-11-22T18:30:42.150Z,41.68
2018-11-22T18:33:10.494Z,39.40
2018-11-22T18:35:38.842Z,47.03
2018-11-22T18:38:07.180Z,41.80
2018-11-22T18:40:37.245Z,42.70
2018-11-22T18:43:05.710Z,42.60
2018-11-22T18:45:35.685Z,46.20
2018-11-22T18:48:05.272Z,40.23
2018-11-22T18:50:34.461Z,43.78
2018-11-22T18:53:02.818Z,45.65
2018-11-22T18:55:31.268Z,46.80
2018-11-22T18:57:59.650Z,46.67
2018-11-22T19:00:29.464Z,42.90
2018-11-22T19:02:59.418Z,43.90
2018-11-22T19:05:27.981Z,42.73
2018-11-22T19:07:57.095Z,44.13
2018-11-22T19:10:29.934Z,46.25
2018-11-22T19:12:59.785Z,47.10
2018-11-22T19:15:29.515Z,47.03
2018-11-22T19:17:57.912Z,49.83
2018-11-22T19:20:31.582Z,45.95
2018-11-22T19:23:00.890Z,45.58
2018-11-22T19:25:29.237Z,48.58
2018-11-22T19:27:58.513Z,48.85
2018-11-22T19:30:37.126Z,42.67
2018-11-22T19:33:01.366Z,46.45
2018-11-22T19:35:31.063Z,46.77
2018-11-22T19:37:59.417Z,49.60
2018-11-22T19:40:35.191Z,49.05
2018-11-22T19:43:05.122Z,49.73
2018-11-22T19:45:35.248Z,50.65
2018-11-22T19:48:03.580Z,50.88
2018-11-22T19:50:32.241Z,51.48
2018-11-22T19:53:01.916Z,50.52
2018-11-22T19:55:31.613Z,50.75
2018-11-22T19:58:04.000Z,51.98
2018-11-22T20:00:32.691Z,47.98
2018-11-22T20:03:02.461Z,52.20
2018-11-22T20:05:32.102Z,50.17
2018-11-22T20:08:02.019Z,50.28
2018-11-22T20:10:31.735Z,45.83
2018-11-22T20:13:00.155Z,43.52
2018-11-22T20:15:28.693Z,44.50
2018-11-22T20:17:57.783Z,51.63
2018-11-22T20:20:26.470Z,47.05
2018-11-22T20:22:55.159Z,48.80
2018-11-22T20:25:23.663Z,48.75
2018-11-22T20:27:53.146Z,48.65
2018-11-22T20:30:23.506Z,56.77
2018-11-22T20:32:51.847Z,52.13
2018-11-22T20:35:21.057Z,60.95
2018-11-22T20:37:50.142Z,61.95
2018-11-22T20:40:19.848Z,55.78
2018-11-22T20:42:48.466Z,64.65
2018-11-22T20:45:18.286Z,52.58
2018-11-22T20:47:47.766Z,54.18
2018-11-22T20:50:17.662Z,54.53
2018-11-22T20:52:46.154Z,48.68
2018-11-22T20:55:17.073Z,47.93
2018-11-22T20:57:46.656Z,47.83
2018-11-22T21:00:16.918Z,46.53
2018-11-22T21:02:45.820Z,51.88
2018-11-22T21:05:14.898Z,47.85
2018-11-22T21:07:43.811Z,51.68
2018-11-22T21:10:26.210Z,45.20
2018-11-22T21:12:54.647Z,47.35
2018-11-22T21:15:27.255Z,49.60
2018-11-22T21:17:57.386Z,52.67
2018-11-22T21:20:27.501Z,47.25
2018-11-22T21:22:55.830Z,51.42
2018-11-22T21:25:24.223Z,49.27
2018-11-22T21:27:52.691Z,43.55
2018-11-22T21:30:29.838Z,50.73
2018-11-22T21:32:58.921Z,54.03
2018-11-22T21:35:27.375Z,49.57
2018-11-22T21:37:56.691Z,54.05
2018-11-22T21:40:25.798Z,48.68
2018-11-22T21:42:54.123Z,48.13
2018-11-22T21:45:23.783Z,47.05
2018-11-22T21:47:52.162Z,55.45
2018-11-22T21:50:21.969Z,50.52
2018-11-22T21:52:50.455Z,51.58
2018-11-22T21:55:20.419Z,50.85
2018-11-22T21:57:49.203Z,50.35
2018-11-22T22:00:29.856Z,48.35
2018-11-22T22:03:02.814Z,51.25
2018-11-22T22:05:31.147Z,54.55
2018-11-22T22:07:59.634Z,52.08
2018-11-22T22:10:27.962Z,52.70
2018-11-22T22:12:56.290Z,54.05
2018-11-22T22:15:26.237Z,53.52
2018-11-22T22:17:54.665Z,55.98
2018-11-22T22:20:33.234Z,50.12
2018-11-22T22:23:01.686Z,53.25
2018-11-22T22:25:30.105Z,53.60
2018-11-22T22:27:58.893Z,52.45
2018-11-22T22:30:28.600Z,52.30
2018-11-22T22:32:58.507Z,51.63
2018-11-22T22:35:26.859Z,51.90
2018-11-22T22:37:55.194Z,55.52
2018-11-22T22:40:24.774Z,58.40
2018-11-22T22:42:54.485Z,49.20
2018-11-22T22:45:23.993Z,55.73
2018-11-22T22:47:52.675Z,50.93
2018-11-22T22:50:25.254Z,53.00
2018-11-22T22:52:54.962Z,50.92
2018-11-22T22:57:50.976Z,47.60
2018-11-22T23:00:38.610Z,51.23
2018-11-22T23:03:07.735Z,45.75
2018-11-22T23:05:36.819Z,53.00
2018-11-22T23:08:05.175Z,45.33
2018-11-22T23:10:33.627Z,49.10
2018-11-22T23:13:02.144Z,53.70
2018-11-22T23:15:31.362Z,47.80
2018-11-22T23:17:59.711Z,49.70
2018-11-22T23:20:29.547Z,57.17
2018-11-22T23:22:57.878Z,53.63
2018-11-22T23:25:27.131Z,51.83
2018-11-22T23:27:55.485Z,48.02
2018-11-22T23:30:25.667Z,53.17
2018-11-22T23:32:56.437Z,53.08
2018-11-22T23:35:24.897Z,53.42
2018-11-22T23:37:53.487Z,49.95
2018-11-22T23:40:23.141Z,44.10
2018-11-22T23:42:51.619Z,48.52
2018-11-22T23:45:21.132Z,47.58
2018-11-22T23:47:50.014Z,48.60
2018-11-22T23:50:22.813Z,53.38
2018-11-22T23:52:52.313Z,55.78
2018-11-22T23:55:20.755Z,50.28
2018-11-22T23:57:49.098Z,54.38
